Time;durP1;ratioP1;P1;durP2;ratioP2;P2;SDS_P1;SDS_P2;PMS_P1;PMS_P2;Temp;Humidity;BMP_temperature;BMP_pressure;BME280_temperature;BME280_humidity;BME280_pressure;Samples;Min_cycle;Max_cycle;Signal;HPM_P1;HPM_P2
2021/07/03 00:00:41;;;;;;;4.80;4.28;;;20.50;96.00;;;;;;4996210;28;20121;-88
2021/07/03 00:03:07;;;;;;;5.25;4.10;;;20.50;96.10;;;;;;4996030;28;20023;-88
2021/07/03 00:05:33;;;;;;;4.47;3.13;;;20.40;96.10;;;;;;4995894;28;20374;-88
2021/07/03 00:07:58;;;;;;;3.42;2.80;;;20.40;96.40;;;;;;4995303;28;20050;-88
2021/07/03 00:10:24;;;;;;;4.47;3.05;;;20.40;96.20;;;;;;4995864;28;20125;-88
2021/07/03 00:12:50;;;;;;;3.35;2.70;;;20.40;96.10;;;;;;4995564;28;20061;-88
2021/07/03 00:15:21;;;;;;;3.15;2.85;;;20.30;96.10;;;;;;4995792;28;20484;-88
2021/07/03 00:17:48;;;;;;;2.38;2.17;;;20.30;96.10;;;;;;5011127;28;20019;-88
2021/07/03 00:20:14;;;;;;;3.88;2.53;;;20.30;96.20;;;;;;5014714;28;20045;-88
2021/07/03 00:22:39;;;;;;;3.13;2.83;;;20.20;96.20;;;;;;5016173;28;20022;-88
2021/07/03 00:25:06;;;;;;;3.33;2.25;;;20.20;96.30;;;;;;5014450;28;20038;-88
2021/07/03 00:27:32;;;;;;;3.05;2.67;;;20.20;96.30;;;;;;5010206;28;20102;-90
2021/07/03 00:29:57;;;;;;;4.07;2.97;;;20.10;96.40;;;;;;4995797;28;20101;-88
2021/07/03 00:32:23;;;;;;;2.70;2.50;;;20.10;96.50;;;;;;4995957;28;20037;-87
2021/07/03 00:34:49;;;;;;;2.30;2.10;;;20.10;96.50;;;;;;4997012;28;20474;-88
2021/07/03 00:37:16;;;;;;;6.85;2.85;;;20.00;96.60;;;;;;4998329;28;20473;-88
2021/07/03 00:39:42;;;;;;;4.75;2.83;;;20.00;96.60;;;;;;4997398;28;20384;-88
2021/07/03 00:42:08;;;;;;;3.63;3.05;;;20.00;96.60;;;;;;4995606;28;20081;-88
2021/07/03 00:44:37;;;;;;;5.22;3.10;;;19.90;96.60;;;;;;4996085;28;20030;-88
2021/07/03 00:47:06;;;;;;;3.33;2.38;;;19.90;96.60;;;;;;4995386;28;20031;-88
2021/07/03 00:49:34;;;;;;;2.80;2.50;;;19.90;96.60;;;;;;4994741;28;20138;-88
2021/07/03 00:52:00;;;;;;;3.88;2.80;;;19.80;96.60;;;;;;4994895;28;20026;-88
2021/07/03 00:54:28;;;;;;;5.95;3.08;;;19.80;96.60;;;;;;4994986;28;20484;-88
2021/07/03 00:57:04;;;;;;;4.10;3.03;;;19.70;96.60;;;;;;4994928;28;20030;-88
2021/07/03 00:59:39;;;;;;;6.47;3.05;;;19.70;96.70;;;;;;4994859;28;20035;-88
2021/07/03 01:02:07;;;;;;;4.32;2.75;;;19.70;96.70;;;;;;4994512;28;20080;-88
2021/07/03 01:04:32;;;;;;;4.60;3.47;;;19.70;96.80;;;;;;4994479;28;20085;-88
2021/07/03 01:06:59;;;;;;;4.50;3.60;;;19.60;96.80;;;;;;4994261;28;20188;-88
2021/07/03 01:09:25;;;;;;;4.63;3.55;;;19.60;96.80;;;;;;4994533;28;20477;-88
2021/07/03 01:11:52;;;;;;;4.40;3.63;;;19.60;96.80;;;;;;4994506;28;20023;-88
2021/07/03 01:14:19;;;;;;;3.97;3.50;;;19.60;96.80;;;;;;4994390;28;20029;-88
2021/07/03 01:16:46;;;;;;;4.30;3.63;;;19.50;96.80;;;;;;4994252;28;20052;-88
2021/07/03 01:19:12;;;;;;;3.72;3.40;;;19.50;96.80;;;;;;4994539;28;20088;-88
2021/07/03 01:21:38;;;;;;;6.55;3.60;;;19.50;96.90;;;;;;4994606;28;20030;-88
2021/07/03 01:24:05;;;;;;;5.80;3.72;;;19.50;97.00;;;;;;4995634;28;20033;-88
2021/07/03 01:26:41;;;;;;;4.63;3.78;;;19.50;97.00;;;;;;4994344;28;20045;-88
2021/07/03 01:29:06;;;;;;;4.85;3.35;;;19.50;97.00;;;;;;5010396;28;20043;-88
2021/07/03 01:31:32;;;;;;;4.45;3.72;;;19.50;97.10;;;;;;4993808;28;20055;-88
2021/07/03 01:33:58;;;;;;;6.72;4.10;;;19.40;97.10;;;;;;4994023;28;20026;-88
2021/07/03 01:36:23;;;;;;;4.40;3.97;;;19.40;97.20;;;;;;4993952;28;20054;-88
2021/07/03 01:38:49;;;;;;;4.85;3.72;;;19.40;97.30;;;;;;4994052;28;20026;-88
2021/07/03 01:41:14;;;;;;;7.80;4.20;;;19.40;97.30;;;;;;4995031;28;20077;-88
2021/07/03 01:43:40;;;;;;;8.80;5.13;;;19.40;97.30;;;;;;4993828;28;20039;-87
2021/07/03 01:46:06;;;;;;;5.35;4.20;;;19.40;97.40;;;;;;4994319;28;20387;-88
2021/07/03 01:48:32;;;;;;;5.97;4.90;;;19.40;97.50;;;;;;4993472;28;20068;-88
2021/07/03 01:50:59;;;;;;;5.30;4.18;;;19.40;97.60;;;;;;4993726;28;20034;-88
2021/07/03 01:53:26;;;;;;;6.72;4.68;;;19.40;97.60;;;;;;4994843;28;20034;-88
2021/07/03 01:55:52;;;;;;;8.35;5.13;;;19.30;97.60;;;;;;4994057;28;20034;-88
2021/07/03 01:58:20;;;;;;;7.15;4.65;;;19.30;97.60;;;;;;4993643;28;20117;-88
2021/07/03 02:00:53;;;;;;;7.25;4.93;;;19.30;97.80;;;;;;4994706;28;20037;-88
2021/07/03 02:03:19;;;;;;;5.55;4.95;;;19.30;97.60;;;;;;4994835;28;20037;-89
2021/07/03 02:05:46;;;;;;;7.55;5.68;;;19.40;97.60;;;;;;4994797;28;20046;-89
2021/07/03 02:08:12;;;;;;;7.90;5.45;;;19.30;97.60;;;;;;4994928;28;20026;-89
2021/07/03 02:10:38;;;;;;;6.38;5.18;;;19.30;97.60;;;;;;4996142;28;20062;-88
2021/07/03 02:13:04;;;;;;;10.07;5.47;;;19.40;97.60;;;;;;4996535;28;20027;-87
2021/07/03 02:15:30;;;;;;;8.82;4.88;;;19.40;97.50;;;;;;5010694;28;20030;-88
2021/07/03 02:17:56;;;;;;;5.90;4.70;;;19.40;97.50;;;;;;5011348;28;20086;-87
2021/07/03 02:20:22;;;;;;;9.65;5.22;;;19.40;97.40;;;;;;5012364;28;20042;-89
2021/07/03 02:22:48;;;;;;;6.85;5.00;;;19.40;97.30;;;;;;5006339;28;20030;-88
2021/07/03 02:25:14;;;;;;;5.57;4.28;;;19.50;97.20;;;;;;4998663;28;20030;-89
2021/07/03 02:27:40;;;;;;;5.28;4.00;;;19.50;97.20;;;;;;5014761;28;20089;-88
2021/07/03 02:30:09;;;;;;;5.38;3.88;;;19.50;97.10;;;;;;4995636;28;20026;-88
2021/07/03 02:32:35;;;;;;;5.15;3.70;;;19.50;97.00;;;;;;4996517;28;20019;-88
2021/07/03 02:35:01;;;;;;;5.35;4.22;;;19.50;97.00;;;;;;4995825;28;20030;-88
2021/07/03 02:37:26;;;;;;;5.32;3.97;;;19.60;96.90;;;;;;4995099;28;20125;-88
2021/07/03 02:39:52;;;;;;;5.47;3.55;;;19.60;96.80;;;;;;4994907;28;20473;-88
2021/07/03 02:42:18;;;;;;;5.60;3.88;;;19.60;96.80;;;;;;4993649;28;20030;-88
2021/07/03 02:44:43;;;;;;;5.30;3.92;;;19.70;96.70;;;;;;4993562;28;20469;-88
2021/07/03 02:47:09;;;;;;;4.15;3.47;;;19.70;96.70;;;;;;4993469;28;20129;-88
2021/07/03 02:49:35;;;;;;;4.72;4.05;;;19.70;96.70;;;;;;4993461;28;20069;-88
2021/07/03 02:52:00;;;;;;;5.50;4.05;;;19.80;96.70;;;;;;4993292;28;20030;-88
2021/07/03 02:54:26;;;;;;;5.97;4.20;;;19.90;96.60;;;;;;4993283;28;20022;-88
2021/07/03 02:56:57;;;;;;;6.43;3.97;;;19.90;96.60;;;;;;4993450;28;20041;-88
2021/07/03 02:59:24;;;;;;;4.25;3.70;;;19.90;96.50;;;;;;4995678;28;20026;-88
2021/07/03 03:01:50;;;;;;;5.45;4.05;;;20.00;96.50;;;;;;4996744;28;20509;-88
2021/07/03 03:04:15;;;;;;;5.63;4.13;;;20.10;96.40;;;;;;4998032;28;20037;-88
2021/07/03 03:06:41;;;;;;;5.63;3.83;;;20.10;96.30;;;;;;4998014;28;20059;-87
2021/07/03 03:09:07;;;;;;;5.78;4.50;;;20.20;96.30;;;;;;4997678;28;20073;-88
2021/07/03 03:11:32;;;;;;;6.97;5.05;;;20.20;96.10;;;;;;4996862;28;20116;-88
2021/07/03 03:13:58;;;;;;;7.70;4.93;;;20.30;96.10;;;;;;4996871;28;20031;-88
2021/07/03 03:16:25;;;;;;;10.45;6.55;;;20.30;96.10;;;;;;4996964;28;20034;-88
2021/07/03 03:18:51;;;;;;;9.95;5.70;;;20.40;96.00;;;;;;4997200;28;20417;-88
2021/07/03 03:21:17;;;;;;;9.32;6.13;;;20.50;96.00;;;;;;4996820;28;20022;-88
2021/07/03 03:23:43;;;;;;;10.48;6.68;;;20.50;95.90;;;;;;4996443;28;20033;-88
2021/07/03 03:26:08;;;;;;;15.32;9.85;;;20.60;95.90;;;;;;4996519;28;20449;-88
2021/07/03 03:28:34;;;;;;;14.82;11.27;;;20.60;95.80;;;;;;4996757;28;20621;-88
2021/07/03 03:31:00;;;;;;;21.30;14.93;;;20.60;95.70;;;;;;4996475;28;20073;-88
2021/07/03 03:33:25;;;;;;;18.42;14.18;;;20.70;95.60;;;;;;4996518;28;20085;-88
2021/07/03 03:35:51;;;;;;;13.73;11.10;;;20.80;95.50;;;;;;4996531;28;20030;-87
2021/07/03 03:38:17;;;;;;;14.52;10.55;;;20.90;95.40;;;;;;4996357;28;20028;-88
2021/07/03 03:40:42;;;;;;;8.88;7.80;;;20.90;95.20;;;;;;4997313;28;20082;-88
2021/07/03 03:43:10;;;;;;;9.93;7.65;;;21.00;95.10;;;;;;4996438;28;20381;-88
2021/07/03 03:45:36;;;;;;;7.80;5.40;;;21.10;94.90;;;;;;4996385;28;20026;-88
2021/07/03 03:48:02;;;;;;;8.45;5.28;;;21.20;94.70;;;;;;4995925;28;20027;-88
2021/07/03 03:50:27;;;;;;;6.78;4.93;;;21.20;94.50;;;;;;4995959;28;20030;-88
2021/07/03 03:52:53;;;;;;;6.32;5.38;;;21.30;94.20;;;;;;4995663;28;20026;-88
2021/07/03 03:55:19;;;;;;;4.40;3.67;;;21.40;94.00;;;;;;4996107;28;20441;-88
2021/07/03 03:57:45;;;;;;;5.43;3.53;;;21.40;93.90;;;;;;4996397;28;20033;-88
2021/07/03 04:00:13;;;;;;;5.00;4.28;;;21.50;93.70;;;;;;4995662;28;20033;-88
2021/07/03 04:02:39;;;;;;;4.60;4.00;;;21.60;93.70;;;;;;4995831;28;20018;-88
2021/07/03 04:05:06;;;;;;;4.60;3.75;;;21.60;93.50;;;;;;4996862;28;20454;-88
2021/07/03 04:07:31;;;;;;;4.80;4.30;;;21.70;93.40;;;;;;5011860;28;20055;-88
2021/07/03 04:09:57;;;;;;;3.97;3.50;;;21.80;93.20;;;;;;4996685;28;20109;-88
2021/07/03 04:12:24;;;;;;;4.65;3.72;;;21.90;92.90;;;;;;4995072;28;20450;-88
2021/07/03 04:14:50;;;;;;;4.63;3.78;;;21.90;92.70;;;;;;4995480;28;20026;-88
2021/07/03 04:17:16;;;;;;;5.18;3.90;;;22.00;92.50;;;;;;4999173;28;20026;-88
2021/07/03 04:19:42;;;;;;;6.18;4.90;;;22.10;92.30;;;;;;5014403;28;20031;-88
2021/07/03 04:22:08;;;;;;;7.90;5.20;;;22.20;92.10;;;;;;5015737;28;20084;-89
2021/07/03 04:24:34;;;;;;;5.80;4.65;;;22.20;91.90;;;;;;5012366;28;20030;-88
2021/07/03 04:27:00;;;;;;;7.10;5.07;;;22.30;91.80;;;;;;5013787;28;20512;-87
2021/07/03 04:29:26;;;;;;;8.25;5.10;;;22.30;91.60;;;;;;5010943;28;20073;-88
2021/07/03 04:31:52;;;;;;;8.63;5.57;;;22.40;91.40;;;;;;4995841;28;20326;-88
2021/07/03 04:34:17;;;;;;;6.65;4.38;;;22.40;91.30;;;;;;4996524;28;20096;-88
2021/07/03 04:36:43;;;;;;;7.25;5.28;;;22.50;91.30;;;;;;4995440;28;20480;-88
2021/07/03 04:39:09;;;;;;;10.10;5.65;;;22.50;91.20;;;;;;4995505;28;20027;-88
2021/07/03 04:41:35;;;;;;;6.85;6.05;;;22.60;91.10;;;;;;4995280;28;20026;-88
2021/07/03 04:44:01;;;;;;;9.75;5.63;;;22.60;90.90;;;;;;4994774;28;20030;-89
2021/07/03 04:46:27;;;;;;;7.28;5.50;;;22.70;90.80;;;;;;4994367;28;20066;-88
2021/07/03 04:48:53;;;;;;;9.32;6.25;;;22.70;90.70;;;;;;4994713;28;20065;-88
2021/07/03 04:51:18;;;;;;;10.18;6.88;;;22.80;90.50;;;;;;4994400;28;20030;-88
2021/07/03 04:53:44;;;;;;;7.38;6.13;;;22.90;90.50;;;;;;4995218;28;20070;-88
2021/07/03 04:56:10;;;;;;;8.68;5.85;;;23.00;90.40;;;;;;4995005;28;20034;-88
2021/07/03 04:58:35;;;;;;;13.32;6.45;;;23.00;90.10;;;;;;4996138;28;20127;-88
2021/07/03 05:01:01;;;;;;;7.57;6.20;;;23.10;90.00;;;;;;4994568;28;20470;-88
2021/07/03 05:03:27;;;;;;;8.20;5.80;;;23.20;89.70;;;;;;4994501;28;20030;-88
2021/07/03 05:05:53;;;;;;;6.25;5.50;;;23.20;89.30;;;;;;4994492;28;20074;-88
2021/07/03 05:08:18;;;;;;;7.32;6.05;;;23.30;89.10;;;;;;4995191;28;20026;-88
2021/07/03 05:10:44;;;;;;;9.40;6.40;;;23.30;88.90;;;;;;4994720;28;20037;-88
2021/07/03 05:13:10;;;;;;;12.55;7.72;;;23.40;88.70;;;;;;4994983;28;20041;-88
2021/07/03 05:15:35;;;;;;;8.02;6.75;;;23.50;88.50;;;;;;4994687;28;20071;-88
2021/07/03 05:18:02;;;;;;;8.55;7.32;;;23.60;88.10;;;;;;4995652;28;20397;-89
2021/07/03 05:20:28;;;;;;;11.10;7.65;;;23.70;87.80;;;;;;4993859;28;20033;-88
2021/07/03 05:22:54;;;;;;;7.60;5.85;;;23.80;87.40;;;;;;4994842;28;20026;-89
2021/07/03 05:25:20;;;;;;;7.85;6.72;;;23.90;87.10;;;;;;4995233;28;20038;-89
2021/07/03 05:27:46;;;;;;;8.88;7.32;;;24.00;86.70;;;;;;4995399;28;20089;-88
2021/07/03 05:30:12;;;;;;;7.55;6.82;;;24.10;86.20;;;;;;4994066;28;20023;-88
2021/07/03 05:32:38;;;;;;;9.95;6.97;;;24.10;85.90;;;;;;4995045;28;20030;-89
2021/07/03 05:35:04;;;;;;;7.72;6.75;;;24.20;85.70;;;;;;4994916;28;20109;-89
2021/07/03 05:37:30;;;;;;;7.82;6.63;;;24.30;85.40;;;;;;4994607;28;20031;-89
2021/07/03 05:39:55;;;;;;;8.20;7.35;;;24.40;84.90;;;;;;4995652;28;20053;-88
2021/07/03 05:42:21;;;;;;;9.65;7.28;;;24.50;84.50;;;;;;4995131;28;20122;-89
2021/07/03 05:44:47;;;;;;;7.70;6.25;;;24.50;84.00;;;;;;4995472;28;20030;-88
2021/07/03 05:47:12;;;;;;;8.88;7.43;;;24.50;84.00;;;;;;4996030;28;20121;-89
2021/07/03 05:49:40;;;;;;;8.02;6.88;;;24.60;84.00;;;;;;4994189;28;20034;-88
2021/07/03 05:52:06;;;;;;;10.05;6.63;;;24.70;83.50;;;;;;4994116;28;20034;-88
2021/07/03 05:54:32;;;;;;;8.35;7.20;;;24.70;83.40;;;;;;4993904;28;20030;-88
2021/07/03 05:56:58;;;;;;;8.02;7.20;;;24.80;82.90;;;;;;5010669;28;20393;-88
2021/07/03 05:59:24;;;;;;;7.43;6.55;;;24.90;82.50;;;;;;4993714;28;20026;-88
2021/07/03 06:01:49;;;;;;;8.45;6.57;;;24.90;82.30;;;;;;4993698;28;20392;-88
2021/07/03 06:04:15;;;;;;;8.63;6.70;;;25.00;82.20;;;;;;4993348;28;20518;-89
2021/07/03 06:06:41;;;;;;;7.47;6.40;;;25.20;82.10;;;;;;4993498;28;20497;-89
2021/07/03 06:09:06;;;;;;;11.10;6.93;;;25.30;81.60;;;;;;4994643;28;20458;-88
2021/07/03 06:11:32;;;;;;;6.97;5.97;;;25.40;81.20;;;;;;4993495;28;20040;-88
2021/07/03 06:14:00;;;;;;;7.63;6.82;;;25.40;81.00;;;;;;4994802;28;20462;-88
2021/07/03 06:16:26;;;;;;;9.13;7.78;;;25.60;80.80;;;;;;4994153;28;20474;-89
2021/07/03 06:18:52;;;;;;;11.43;7.25;;;25.70;80.70;;;;;;4994918;28;20026;-89
2021/07/03 06:21:18;;;;;;;8.02;7.22;;;25.70;79.40;;;;;;4993770;28;20022;-89
2021/07/03 06:23:44;;;;;;;7.78;6.80;;;25.80;79.20;;;;;;4994060;28;20023;-89
2021/07/03 06:26:10;;;;;;;8.82;7.80;;;25.90;78.50;;;;;;4993727;28;20038;-89
2021/07/03 06:28:36;;;;;;;7.28;6.43;;;26.00;78.10;;;;;;4993843;28;20502;-89
2021/07/03 06:31:01;;;;;;;9.73;6.45;;;26.10;78.00;;;;;;4993861;28;20030;-88
2021/07/03 06:33:27;;;;;;;7.72;6.70;;;26.10;77.30;;;;;;4994894;28;20113;-89
2021/07/03 06:35:53;;;;;;;9.00;6.40;;;26.20;77.00;;;;;;5013829;28;20030;-89
2021/07/03 06:38:19;;;;;;;9.35;8.10;;;26.30;76.70;;;;;;5017411;28;20017;-88
2021/07/03 06:40:45;;;;;;;9.10;6.97;;;26.40;76.20;;;;;;5018917;28;20090;-89
2021/07/03 06:43:10;;;;;;;7.50;6.57;;;26.40;75.50;;;;;;5019104;28;20026;-89
2021/07/03 06:45:36;;;;;;;8.32;7.53;;;26.50;75.30;;;;;;5019250;28;20050;-89
2021/07/03 06:48:02;;;;;;;6.97;6.03;;;26.50;75.10;;;;;;5017304;28;20085;-89
2021/07/03 06:50:28;;;;;;;7.38;6.13;;;26.60;75.00;;;;;;5000066;28;20077;-89
2021/07/03 06:52:54;;;;;;;7.47;6.45;;;26.70;74.50;;;;;;4998141;28;20033;-89
2021/07/03 06:55:20;;;;;;;6.53;5.90;;;26.80;74.20;;;;;;4999342;28;20037;-88
2021/07/03 06:57:45;;;;;;;7.88;5.30;;;26.90;73.60;;;;;;4998484;28;20030;-88
2021/07/03 07:00:11;;;;;;;5.30;4.57;;;26.90;73.60;;;;;;4998785;28;20157;-88
2021/07/03 07:02:37;;;;;;;5.93;5.25;;;26.90;73.30;;;;;;5013825;28;20065;-89
2021/07/03 07:05:06;;;;;;;5.60;4.72;;;27.00;72.90;;;;;;4998157;28;20116;-89
2021/07/03 07:07:32;;;;;;;5.88;4.88;;;27.00;72.70;;;;;;4996415;28;20050;-89
2021/07/03 07:09:58;;;;;;;4.97;4.47;;;27.10;72.40;;;;;;5013418;28;20065;-89
2021/07/03 07:12:24;;;;;;;7.40;5.30;;;27.10;72.20;;;;;;4996966;28;20451;-89
2021/07/03 07:14:49;;;;;;;5.68;5.03;;;27.20;72.00;;;;;;4996729;28;20050;-89
2021/07/03 07:17:16;;;;;;;4.95;4.40;;;27.20;71.70;;;;;;4996413;28;20470;-88
2021/07/03 07:19:41;;;;;;;4.55;4.15;;;27.20;71.70;;;;;;4996771;28;20078;-89
2021/07/03 07:22:07;;;;;;;4.25;3.83;;;27.30;71.70;;;;;;4996558;28;20034;-89
2021/07/03 07:24:33;;;;;;;6.65;4.40;;;27.30;71.60;;;;;;4997166;28;20113;-89
2021/07/03 07:26:59;;;;;;;4.65;4.20;;;27.40;71.30;;;;;;4996610;28;20124;-89
2021/07/03 07:29:25;;;;;;;5.95;5.30;;;27.40;71.00;;;;;;4996198;28;20022;-89
2021/07/03 07:31:51;;;;;;;6.18;4.28;;;27.50;70.30;;;;;;4997050;28;20033;-89
2021/07/03 07:34:17;;;;;;;5.88;5.20;;;27.40;70.00;;;;;;4996922;28;20469;-89
2021/07/03 07:36:43;;;;;;;5.72;5.07;;;27.40;70.10;;;;;;4996293;28;20088;-88
2021/07/03 07:39:09;;;;;;;6.18;4.53;;;27.50;69.60;;;;;;4996090;28;20023;-89
2021/07/03 07:41:35;;;;;;;5.05;4.45;;;27.50;69.20;;;;;;4997454;28;20065;-89
2021/07/03 07:44:00;;;;;;;4.93;4.43;;;27.60;69.40;;;;;;4997506;28;20027;-89
2021/07/03 07:46:26;;;;;;;6.38;4.05;;;27.60;68.90;;;;;;4994801;28;20044;-89
2021/07/03 07:48:54;;;;;;;4.97;4.53;;;27.70;69.20;;;;;;4997085;28;20126;-89
2021/07/03 07:51:19;;;;;;;5.38;4.88;;;27.70;68.90;;;;;;5012647;28;20030;-89
2021/07/03 07:53:45;;;;;;;6.65;4.57;;;27.80;68.70;;;;;;4996051;28;20023;-89
2021/07/03 07:56:11;;;;;;;6.88;5.05;;;27.80;68.70;;;;;;4996083;28;20034;-88
2021/07/03 07:58:36;;;;;;;5.38;4.82;;;27.80;68.40;;;;;;4997191;28;20037;-89
2021/07/03 08:01:03;;;;;;;5.38;4.80;;;27.90;68.40;;;;;;4995528;28;20409;-89
2021/07/03 08:03:28;;;;;;;6.80;5.05;;;28.00;68.30;;;;;;4997662;28;20037;-88
2021/07/03 08:05:54;;;;;;;5.75;4.82;;;28.00;67.70;;;;;;4995910;28;20464;-89
2021/07/03 08:08:20;;;;;;;6.90;4.63;;;28.10;67.60;;;;;;4995849;28;20030;-89
2021/07/03 08:10:46;;;;;;;6.28;5.68;;;28.20;67.30;;;;;;4995671;28;20069;-89
2021/07/03 08:13:12;;;;;;;5.57;4.70;;;28.20;66.60;;;;;;4996520;28;20058;-89
2021/07/03 08:15:37;;;;;;;7.18;4.60;;;28.30;66.60;;;;;;4996553;28;20113;-89
2021/07/03 08:18:05;;;;;;;5.40;4.80;;;28.30;67.10;;;;;;4995234;28;20033;-89
2021/07/03 08:20:31;;;;;;;5.85;5.03;;;28.30;66.30;;;;;;4995566;28;20034;-88
2021/07/03 08:22:57;;;;;;;5.93;5.05;;;28.30;66.40;;;;;;4995547;28;20033;-89
2021/07/03 08:25:24;;;;;;;5.85;4.85;;;28.40;66.40;;;;;;4995057;28;20392;-90
2021/07/03 08:27:52;;;;;;;5.95;5.35;;;28.50;66.00;;;;;;5011650;28;20133;-88
2021/07/03 08:30:20;;;;;;;6.88;5.32;;;28.50;65.40;;;;;;4995239;28;20053;-88
2021/07/03 08:32:46;;;;;;;6.00;5.30;;;28.60;65.70;;;;;;4996646;28;20026;-89
2021/07/03 08:35:13;;;;;;;6.32;5.40;;;28.60;65.60;;;;;;4995395;28;20026;-89
2021/07/03 08:37:40;;;;;;;7.40;4.93;;;28.60;65.60;;;;;;4995631;28;20033;-89
2021/07/03 08:40:07;;;;;;;5.28;4.78;;;28.60;65.20;;;;;;4995872;28;20157;-88
2021/07/03 08:42:33;;;;;;;5.55;5.05;;;28.70;65.60;;;;;;4996618;28;20033;-88
2021/07/03 08:45:04;;;;;;;5.40;4.90;;;28.70;65.30;;;;;;4995779;28;20027;-89
2021/07/03 08:47:30;;;;;;;7.35;4.95;;;28.80;65.30;;;;;;4977629;28;20150;-89
2021/07/03 08:50:01;;;;;;;4.75;4.32;;;28.90;65.30;;;;;;4975207;28;20047;-88
2021/07/03 08:52:27;;;;;;;7.13;5.15;;;29.00;65.10;;;;;;4986113;28;20022;-89
2021/07/03 08:55:02;;;;;;;5.20;4.80;;;29.10;64.80;;;;;;4998518;28;20030;-89
2021/07/03 08:57:28;;;;;;;5.78;4.57;;;29.10;64.60;;;;;;4994439;28;20048;-90
2021/07/03 08:59:58;;;;;;;5.18;4.68;;;29.10;64.40;;;;;;4986074;28;20030;-88
2021/07/03 09:02:35;;;;;;;5.47;4.82;;;29.10;64.70;;;;;;4989922;28;20022;-89
2021/07/03 09:05:01;;;;;;;5.55;4.68;;;29.20;64.10;;;;;;4986022;28;20035;-89
2021/07/03 09:07:34;;;;;;;4.93;4.43;;;29.20;64.40;;;;;;4975834;28;20449;-89
2021/07/03 09:10:00;;;;;;;5.78;4.97;;;29.30;64.50;;;;;;4975574;28;20027;-89
2021/07/03 09:12:31;;;;;;;7.85;5.68;;;29.30;64.40;;;;;;4975230;28;20129;-90
2021/07/03 09:15:07;;;;;;;9.35;6.50;;;29.40;64.10;;;;;;4975141;28;20077;-89
2021/07/03 09:17:33;;;;;;;6.35;5.72;;;29.40;63.50;;;;;;4990917;28;20030;-89
2021/07/03 09:19:58;;;;;;;7.10;5.03;;;29.30;63.60;;;;;;4995653;28;20081;-88
2021/07/03 09:22:34;;;;;;;7.40;5.45;;;29.30;64.20;;;;;;4993652;28;20050;-90
2021/07/03 09:24:59;;;;;;;5.95;5.07;;;29.40;64.40;;;;;;4994576;28;20030;-90
2021/07/03 09:27:25;;;;;;;5.78;5.00;;;29.40;64.20;;;;;;4994864;28;20486;-90
2021/07/03 09:29:52;;;;;;;7.93;5.53;;;29.60;64.20;;;;;;4994384;28;20018;-91
2021/07/03 09:32:17;;;;;;;5.72;5.20;;;29.60;63.90;;;;;;4995393;28;20382;-90
2021/07/03 09:34:43;;;;;;;6.22;5.72;;;29.70;63.40;;;;;;4995221;28;20034;-88
2021/07/03 09:37:12;;;;;;;6.20;5.55;;;29.80;63.30;;;;;;4996163;28;20117;-88
2021/07/03 09:39:38;;;;;;;8.38;5.95;;;29.80;63.20;;;;;;4995758;28;20399;-89
2021/07/03 09:42:13;;;;;;;8.38;6.55;;;29.80;63.20;;;;;;4989379;28;20025;-90
2021/07/03 09:44:39;;;;;;;6.38;5.57;;;29.70;63.20;;;;;;4988637;28;20032;-90
2021/07/03 09:47:04;;;;;;;6.47;5.35;;;29.60;63.30;;;;;;4977517;28;20043;-91
2021/07/03 09:49:30;;;;;;;5.80;5.03;;;29.60;63.60;;;;;;4976905;28;20035;-91
2021/07/03 09:51:59;;;;;;;6.28;5.68;;;29.70;63.70;;;;;;4973724;28;20034;-91
2021/07/03 09:54:27;;;;;;;7.18;5.68;;;29.70;63.60;;;;;;4979298;28;20035;-91
2021/07/03 09:56:59;;;;;;;6.22;5.63;;;29.60;63.40;;;;;;4993654;28;20092;-92
2021/07/03 09:59:29;;;;;;;5.97;5.40;;;29.70;63.40;;;;;;4990696;28;20121;-91
2021/07/03 10:01:55;;;;;;;6.40;5.55;;;29.70;63.40;;;;;;4989640;28;20022;-90
2021/07/03 10:04:21;;;;;;;5.10;4.60;;;29.70;63.10;;;;;;4993270;28;20023;-91
2021/07/03 10:07:01;;;;;;;5.32;4.70;;;29.80;63.10;;;;;;4992990;28;20054;-91
2021/07/03 10:09:36;;;;;;;5.47;4.97;;;29.90;63.10;;;;;;5003994;28;20069;-90
2021/07/03 10:12:22;;;;;;;5.55;5.05;;;30.00;62.80;;;;;;4991168;28;20022;-90
2021/07/03 10:14:48;;;;;;;6.78;6.13;;;30.10;62.60;;;;;;4992096;28;20461;-91
2021/07/03 10:17:26;;;;;;;6.78;6.07;;;30.10;62.60;;;;;;4987648;28;20095;-91
2021/07/03 10:19:52;;;;;;;6.10;5.50;;;30.30;62.00;;;;;;4993049;28;20113;-90
2021/07/03 10:22:37;;;;;;;5.45;4.95;;;30.30;62.20;;;;;;4987458;28;20109;-91
2021/07/03 10:25:16;;;;;;;5.85;5.35;;;30.50;62.30;;;;;;5009283;28;20053;-91
2021/07/03 10:27:56;;;;;;;5.68;5.10;;;30.60;61.90;;;;;;5010178;28;20362;-90
2021/07/03 10:30:26;;;;;;;6.57;5.70;;;30.70;61.50;;;;;;4993341;28;20121;-90
2021/07/03 10:33:00;;;;;;;5.88;5.38;;;30.80;61.60;;;;;;4992121;28;20027;-91
2021/07/03 10:35:38;;;;;;;6.72;5.72;;;30.80;61.50;;;;;;4985277;28;20030;-92
2021/07/03 10:38:17;;;;;;;7.03;5.95;;;30.80;61.50;;;;;;4994219;28;20037;-91
2021/07/03 10:40:43;;;;;;;9.60;6.07;;;30.70;61.50;;;;;;5005331;28;20454;-91
2021/07/03 10:43:13;;;;;;;7.15;6.55;;;30.70;61.70;;;;;;4980176;28;20026;-90
2021/07/03 10:45:51;;;;;;;8.57;6.22;;;30.70;61.50;;;;;;4980621;28;20038;-89
2021/07/03 10:48:28;;;;;;;6.95;6.35;;;30.50;61.60;;;;;;4990047;28;20034;-90
2021/07/03 10:50:55;;;;;;;7.57;6.18;;;30.30;61.90;;;;;;4991032;28;20466;-91
2021/07/03 10:53:27;;;;;;;7.50;6.72;;;30.10;62.30;;;;;;4994223;28;20106;-91
2021/07/03 10:55:55;;;;;;;6.83;6.13;;;30.00;62.70;;;;;;5011724;28;20031;-91
2021/07/03 10:58:28;;;;;;;6.47;5.80;;;30.00;62.60;;;;;;4995439;28;20054;-91
2021/07/03 11:01:05;;;;;;;;;;;30.10;62.60;;;;;;4998831;28;20031;-90
2021/07/03 11:03:47;;;;;;;5.43;4.90;;;30.20;62.30;;;;;;5001114;28;19914;-91
2021/07/03 11:06:15;;;;;;;5.18;4.68;;;30.40;61.80;;;;;;4999273;28;20077;-91
2021/07/03 11:08:43;;;;;;;5.47;4.97;;;30.50;61.70;;;;;;4999844;28;20038;-91
2021/07/03 11:11:13;;;;;;;6.65;5.50;;;30.40;61.20;;;;;;5004576;28;20034;-91
2021/07/03 11:13:40;;;;;;;6.57;4.97;;;30.40;61.30;;;;;;5003262;28;20038;-91
2021/07/03 11:16:11;;;;;;;5.50;5.00;;;30.30;61.50;;;;;;4998400;28;20097;-91
2021/07/03 11:18:40;;;;;;;6.00;4.60;;;30.40;61.70;;;;;;4999902;28;20085;-91
2021/07/03 11:21:08;;;;;;;5.88;4.53;;;30.40;61.60;;;;;;4997719;28;20108;-91
2021/07/03 11:23:35;;;;;;;5.70;5.18;;;30.40;61.40;;;;;;4999533;28;20022;-91
2021/07/03 11:26:07;;;;;;;6.68;5.20;;;30.50;61.20;;;;;;4999759;28;20068;-89
2021/07/03 11:28:33;;;;;;;6.45;5.43;;;30.50;60.90;;;;;;4999931;28;20046;-89
2021/07/03 11:31:01;;;;;;;6.25;5.20;;;30.60;60.70;;;;;;4995254;28;20038;-89
2021/07/03 11:33:28;;;;;;;4.57;4.18;;;30.60;60.90;;;;;;5007759;28;20027;-91
2021/07/03 11:35:54;;;;;;;5.07;4.15;;;30.50;61.00;;;;;;5015500;28;20050;-90
2021/07/03 11:38:22;;;;;;;8.18;4.80;;;30.70;61.30;;;;;;4997366;28;20023;-89
2021/07/03 11:40:54;;;;;;;5.85;5.32;;;30.70;60.90;;;;;;4991293;28;20031;-88
2021/07/03 11:43:22;;;;;;;5.93;5.38;;;30.70;60.70;;;;;;4997380;28;20050;-88
2021/07/03 11:45:48;;;;;;;5.97;5.40;;;30.70;60.70;;;;;;4988787;28;20050;-89
2021/07/03 11:48:19;;;;;;;5.40;4.93;;;30.70;60.60;;;;;;4993156;28;20023;-88
2021/07/03 11:50:46;;;;;;;6.95;5.20;;;30.70;60.90;;;;;;4997057;28;20038;-89
2021/07/03 11:53:13;;;;;;;8.10;5.85;;;30.70;61.10;;;;;;4992624;28;20117;-89
2021/07/03 11:55:47;;;;;;;7.00;5.97;;;30.80;60.80;;;;;;5015500;28;20038;-89
2021/07/03 11:58:16;;;;;;;8.70;6.35;;;30.80;60.60;;;;;;4998150;28;20069;-90
2021/07/03 12:00:47;;;;;;;7.75;5.22;;;30.70;60.80;;;;;;4996885;28;20110;-90
2021/07/03 12:03:13;;;;;;;5.70;4.88;;;30.70;61.10;;;;;;5014876;28;20022;-88
2021/07/03 12:05:49;;;;;;;8.90;6.57;;;30.80;60.90;;;;;;5001964;28;20078;-89
2021/07/03 12:08:17;;;;;;;5.63;4.95;;;30.90;61.00;;;;;;5001983;28;20050;-90
2021/07/03 12:10:49;;;;;;;5.22;4.82;;;31.10;60.40;;;;;;4991411;28;20046;-90
2021/07/03 12:13:25;;;;;;;9.43;5.53;;;31.20;59.90;;;;;;4986880;28;20038;-90
2021/07/03 12:15:54;;;;;;;5.60;5.10;;;31.10;59.80;;;;;;4999707;28;20046;-90
2021/07/03 12:18:56;;;;;;;5.38;4.32;;;31.00;60.00;;;;;;5015729;28;20417;-90
2021/07/03 12:21:25;;;;;;;6.80;5.40;;;30.80;60.30;;;;;;4963199;28;20046;-90
2021/07/03 12:24:08;;;;;;;5.88;5.38;;;30.90;61.20;;;;;;4976355;28;20418;-90
2021/07/03 12:26:41;;;;;;;6.32;5.22;;;31.10;62.20;;;;;;4999965;28;20031;-90
2021/07/03 12:29:11;;;;;;;6.28;5.68;;;31.80;62.00;;;;;;5000491;28;20034;-90
2021/07/03 12:31:47;;;;;;;5.25;4.75;;;32.40;61.60;;;;;;5016893;28;20018;-89
2021/07/03 12:34:25;;;;;;;6.97;5.25;;;33.00;60.40;;;;;;4999732;28;20026;-89
2021/07/03 12:36:59;;;;;;;5.25;4.85;;;33.60;59.80;;;;;;5000427;28;20042;-89
2021/07/03 12:39:25;;;;;;;6.25;5.65;;;33.80;58.20;;;;;;4998322;28;20026;-90
2021/07/03 12:42:03;;;;;;;7.03;6.32;;;33.80;57.50;;;;;;4986911;28;20334;-89
2021/07/03 12:44:40;;;;;;;6.53;5.93;;;33.50;57.10;;;;;;4990168;28;20062;-88
2021/07/03 12:47:12;;;;;;;5.78;5.18;;;33.20;57.30;;;;;;5002767;28;20042;-90